Time;durP1;ratioP1;P1;durP2;ratioP2;P2;SDS_P1;SDS_P2;PMS_P1;PMS_P2;Temp;Humidity;BMP_temperature;BMP_pressure;BME280_temperature;BME280_humidity;BME280_pressure;Samples;Min_cycle;Max_cycle;Signal;HPM_P1;HPM_P2
2021/12/22 00:02:12;;;;;;;68.93;30.53;;;1.30;99.90;;;;;;5049836;28;20636;-58
2021/12/22 00:04:44;;;;;;;60.60;29.53;;;1.30;99.90;;;;;;5051172;28;20180;-57
2021/12/22 00:07:10;;;;;;;71.07;28.80;;;1.30;99.90;;;;;;5050879;28;20224;-58
2021/12/22 00:09:36;;;;;;;69.80;29.80;;;1.30;99.90;;;;;;5050339;28;20166;-58
2021/12/22 00:12:03;;;;;;;67.20;28.80;;;1.40;99.90;;;;;;5052281;28;20659;-58
2021/12/22 00:14:28;;;;;;;70.30;29.97;;;1.40;99.90;;;;;;5042307;28;20654;-57
2021/12/22 00:16:54;;;;;;;68.60;29.23;;;1.30;99.90;;;;;;5050922;28;20181;-57
2021/12/22 00:19:20;;;;;;;68.27;28.73;;;1.30;99.90;;;;;;5051081;28;20177;-58
2021/12/22 00:21:46;;;;;;;67.57;28.60;;;1.30;99.90;;;;;;5051287;28;20177;-58
2021/12/22 00:24:12;;;;;;;60.03;28.37;;;1.20;99.90;;;;;;5050798;28;20205;-58
2021/12/22 00:26:38;;;;;;;62.17;27.10;;;1.10;99.90;;;;;;5051836;28;20212;-58
2021/12/22 00:29:05;;;;;;;70.57;28.67;;;1.10;99.90;;;;;;5051280;28;20219;-58
2021/12/22 00:31:39;;;;;;;66.53;28.63;;;1.00;99.90;;;;;;5050567;28;20351;-57
2021/12/22 00:34:06;;;;;;;70.07;28.53;;;1.00;99.90;;;;;;5050474;28;20228;-57
2021/12/22 00:36:32;;;;;;;60.27;28.43;;;1.00;99.90;;;;;;5050528;28;20169;-57
2021/12/22 00:38:58;;;;;;;70.47;28.73;;;1.00;99.90;;;;;;5050703;28;20223;-58
2021/12/22 00:41:24;;;;;;;65.30;29.60;;;1.00;99.90;;;;;;5050281;28;20177;-59
2021/12/22 00:43:50;;;;;;;75.53;29.03;;;0.90;99.90;;;;;;5051105;28;20169;-57
2021/12/22 00:46:16;;;;;;;63.53;28.00;;;0.90;99.90;;;;;;5054451;28;20216;-58
2021/12/22 00:48:42;;;;;;;59.37;27.70;;;0.90;99.90;;;;;;5054792;28;20175;-58
2021/12/22 00:51:08;;;;;;;74.87;29.53;;;0.80;99.90;;;;;;5054709;28;20199;-58
2021/12/22 00:53:34;;;;;;;67.23;29.23;;;0.80;99.90;;;;;;5054505;28;20173;-58
2021/12/22 00:56:00;;;;;;;70.83;28.37;;;0.80;99.90;;;;;;5054926;28;20176;-57
2021/12/22 00:58:26;;;;;;;65.77;30.40;;;0.80;99.90;;;;;;5054710;28;20175;-58
2021/12/22 01:00:51;;;;;;;73.50;28.80;;;0.70;99.90;;;;;;5054351;28;20177;-58
2021/12/22 01:03:19;;;;;;;64.90;28.90;;;0.80;99.90;;;;;;5054460;28;20176;-59
2021/12/22 01:05:45;;;;;;;71.23;28.73;;;0.80;99.90;;;;;;5054248;28;20732;-58
2021/12/22 01:08:11;;;;;;;73.70;29.60;;;1.10;99.90;;;;;;5054106;28;20302;-58
2021/12/22 01:10:37;;;;;;;75.60;29.80;;;0.80;99.90;;;;;;5054135;28;20683;-58
2021/12/22 01:13:05;;;;;;;67.03;29.33;;;0.70;99.90;;;;;;5054687;28;20678;-59
2021/12/22 01:15:32;;;;;;;67.83;28.83;;;0.60;99.90;;;;;;5054638;28;20173;-59
2021/12/22 01:18:14;;;;;;;57.87;26.83;;;0.60;99.90;;;;;;5054721;28;20632;-58
2021/12/22 01:23:33;;;;;;;71.93;28.00;;;0.60;99.90;;;;;;5056542;28;20717;-65
2021/12/22 01:25:59;;;;;;;72.50;28.70;;;0.60;99.90;;;;;;5056437;28;20227;-63
2021/12/22 01:28:27;;;;;;;67.77;29.13;;;0.60;99.90;;;;;;5056700;28;20268;-59
2021/12/22 01:30:55;;;;;;;67.80;29.03;;;0.60;99.90;;;;;;5057116;28;20206;-59
2021/12/22 01:33:21;;;;;;;68.30;29.20;;;0.60;99.90;;;;;;5057057;28;20177;-59
2021/12/22 01:35:46;;;;;;;70.97;29.47;;;0.50;99.90;;;;;;5056377;28;20165;-59
2021/12/22 01:38:13;;;;;;;73.50;29.73;;;0.50;99.90;;;;;;5054576;28;20181;-59
2021/12/22 01:40:43;;;;;;;70.50;27.93;;;0.50;99.90;;;;;;5054170;28;20176;-58
2021/12/22 01:43:10;;;;;;;65.90;28.90;;;0.60;99.90;;;;;;5053445;28;20177;-59
2021/12/22 01:51:40;;;;;;;69.77;28.83;;;0.70;99.90;;;;;;5053409;28;20581;-58
2021/12/22 01:54:21;;;;;;;78.50;30.13;;;0.60;99.90;;;;;;5053205;28;20172;-58
2021/12/22 01:56:49;;;;;;;69.37;29.00;;;0.60;99.90;;;;;;5052717;28;20238;-58
2021/12/22 01:59:15;;;;;;;78.40;29.43;;;0.60;99.90;;;;;;5053666;28;20181;-59
2021/12/22 02:01:43;;;;;;;70.03;28.37;;;0.60;99.90;;;;;;5053296;28;20185;-59
2021/12/22 02:04:11;;;;;;;67.73;28.43;;;0.60;99.90;;;;;;5053197;28;20663;-59
2021/12/22 02:06:41;;;;;;;68.80;27.77;;;0.60;99.90;;;;;;5053393;28;20277;-58
2021/12/22 02:09:09;;;;;;;64.30;27.57;;;0.60;99.90;;;;;;5053672;28;20188;-59
2021/12/22 02:11:35;;;;;;;69.47;27.53;;;0.50;99.90;;;;;;5054608;28;20211;-58
2021/12/22 02:14:02;;;;;;;64.17;26.33;;;0.50;99.90;;;;;;5054646;28;20191;-58
2021/12/22 02:16:32;;;;;;;63.07;24.80;;;0.50;99.90;;;;;;5052926;28;20180;-58
2021/12/22 02:19:00;;;;;;;65.93;26.53;;;0.40;99.90;;;;;;5053515;28;20185;-58
2021/12/22 02:21:29;;;;;;;61.43;27.23;;;0.40;99.90;;;;;;5052714;28;20231;-58
2021/12/22 02:23:54;;;;;;;58.37;25.37;;;0.50;99.90;;;;;;5052926;28;20173;-58
2021/12/22 02:26:42;;;;;;;62.50;26.33;;;0.50;99.90;;;;;;5052605;28;20593;-58
2021/12/22 02:29:18;;;;;;;65.40;26.37;;;0.40;99.90;;;;;;5052918;28;20181;-58
2021/12/22 02:31:49;;;;;;;68.23;26.93;;;0.40;99.90;;;;;;5052951;28;20259;-57
2021/12/22 02:34:15;;;;;;;61.83;24.00;;;0.40;99.90;;;;;;5052308;28;20185;-58
2021/12/22 02:36:45;;;;;;;63.37;24.70;;;0.40;99.90;;;;;;5052715;28;20652;-58
2021/12/22 02:39:12;;;;;;;59.57;24.67;;;0.50;99.90;;;;;;5052217;28;20197;-58
2021/12/22 02:41:38;;;;;;;55.63;24.27;;;0.40;99.90;;;;;;5053020;28;20657;-58
2021/12/22 02:44:08;;;;;;;59.77;24.67;;;0.40;99.90;;;;;;5053099;28;20644;-58
2021/12/22 02:46:37;;;;;;;60.40;25.50;;;0.50;99.90;;;;;;5048665;28;20212;-57
2021/12/22 02:49:08;;;;;;;60.57;25.37;;;0.50;99.90;;;;;;5052314;28;20189;-57
2021/12/22 02:51:35;;;;;;;58.77;25.20;;;0.50;99.90;;;;;;5052055;28;20177;-57
2021/12/22 02:54:07;;;;;;;57.17;24.83;;;0.50;99.90;;;;;;5052284;28;20243;-57
2021/12/22 02:56:54;;;;;;;63.70;24.43;;;0.50;99.90;;;;;;5051967;28;20230;-57
2021/12/22 03:04:57;;;;;;;53.30;23.53;;;0.50;99.90;;;;;;5016534;28;20201;-57
2021/12/22 03:07:28;;;;;;;57.53;24.13;;;0.50;99.90;;;;;;5034219;28;20217;-57
2021/12/22 03:10:01;;;;;;;51.17;23.07;;;0.50;99.90;;;;;;5051569;28;20181;-58
2021/12/22 03:12:31;;;;;;;52.90;23.90;;;0.50;99.90;;;;;;5051875;28;20196;-57
2021/12/22 03:14:57;;;;;;;60.23;24.03;;;0.50;99.90;;;;;;5051635;28;20583;-57
2021/12/22 03:17:22;;;;;;;67.47;24.13;;;0.50;99.90;;;;;;5051838;28;20185;-57
2021/12/22 03:19:48;;;;;;;57.37;24.23;;;0.50;99.90;;;;;;5051891;28;20177;-57
2021/12/22 03:22:18;;;;;;;58.37;23.93;;;0.50;99.90;;;;;;5053379;28;20189;-58
2021/12/22 03:24:47;;;;;;;55.40;22.20;;;0.50;99.90;;;;;;5053411;28;20181;-58
2021/12/22 03:27:13;;;;;;;52.83;23.00;;;0.50;99.90;;;;;;5050913;28;20263;-57
2021/12/22 03:29:39;;;;;;;55.90;22.77;;;0.50;99.90;;;;;;5051133;28;20184;-58
2021/12/22 03:32:07;;;;;;;56.50;23.53;;;0.50;99.90;;;;;;5051368;28;20454;-57
2021/12/22 03:34:33;;;;;;;62.03;22.73;;;0.40;99.90;;;;;;5051061;28;20184;-57
2021/12/22 03:36:59;;;;;;;59.03;24.00;;;0.40;99.90;;;;;;5051273;28;20594;-57
2021/12/22 03:39:24;;;;;;;62.20;21.63;;;0.50;99.90;;;;;;5051579;28;20274;-58
2021/12/22 03:41:50;;;;;;;56.13;23.37;;;0.50;99.90;;;;;;5051654;28;20185;-57
2021/12/22 03:44:17;;;;;;;53.73;22.20;;;0.50;99.90;;;;;;5051512;28;20201;-57
2021/12/22 03:46:42;;;;;;;53.20;22.57;;;0.50;99.90;;;;;;5051683;28;20219;-57
2021/12/22 03:49:10;;;;;;;51.53;21.83;;;0.50;99.90;;;;;;5051169;28;20178;-57
2021/12/22 03:51:36;;;;;;;53.23;22.00;;;0.50;99.90;;;;;;5051058;28;20224;-57
2021/12/22 03:54:05;;;;;;;53.03;22.07;;;0.60;99.90;;;;;;5051274;28;20643;-57
2021/12/22 03:56:31;;;;;;;54.83;21.80;;;0.50;99.90;;;;;;5051505;28;20238;-57
2021/12/22 03:58:57;;;;;;;51.70;21.10;;;0.50;99.90;;;;;;5051552;28;20532;-57
2021/12/22 04:01:23;;;;;;;50.00;22.03;;;0.60;99.90;;;;;;5051085;28;20192;-58
2021/12/22 04:03:53;;;;;;;46.17;20.23;;;0.60;99.90;;;;;;5051347;28;20173;-57
2021/12/22 04:06:19;;;;;;;55.97;20.10;;;0.60;99.90;;;;;;5050854;28;20215;-57
2021/12/22 04:08:44;;;;;;;50.50;22.27;;;0.60;99.90;;;;;;5049275;28;20268;-57
2021/12/22 04:11:10;;;;;;;57.27;21.13;;;0.60;99.90;;;;;;5051114;28;20182;-57
2021/12/22 04:13:36;;;;;;;50.73;21.03;;;0.60;99.90;;;;;;5053023;28;20249;-63
2021/12/22 04:16:02;;;;;;;45.93;20.13;;;0.60;99.90;;;;;;5051770;28;20177;-57
2021/12/22 04:18:28;;;;;;;49.80;19.77;;;0.60;99.90;;;;;;5050754;28;20169;-57
2021/12/22 04:20:54;;;;;;;51.93;21.20;;;0.60;99.90;;;;;;5050429;28;20201;-58
2021/12/22 04:23:19;;;;;;;52.30;21.10;;;0.50;99.90;;;;;;5051004;28;20177;-58
2021/12/22 04:25:47;;;;;;;44.03;18.67;;;0.60;99.90;;;;;;5050819;28;20219;-57
2021/12/22 04:28:13;;;;;;;43.90;19.77;;;0.60;99.90;;;;;;5050744;28;20580;-57
2021/12/22 04:30:42;;;;;;;46.33;19.43;;;0.70;99.90;;;;;;5050734;28;20173;-58
2021/12/22 04:33:08;;;;;;;48.40;20.30;;;0.70;99.90;;;;;;5050804;28;20347;-57
2021/12/22 04:35:34;;;;;;;48.83;20.13;;;0.70;99.90;;;;;;5050586;28;20682;-57
2021/12/22 04:38:01;;;;;;;55.63;21.10;;;0.70;99.90;;;;;;5050584;28;20666;-57
2021/12/22 04:40:27;;;;;;;44.90;19.90;;;0.70;99.90;;;;;;5038062;28;20177;-57
2021/12/22 04:42:53;;;;;;;55.03;21.90;;;0.70;99.90;;;;;;5050770;28;20177;-58
2021/12/22 04:45:19;;;;;;;50.43;21.70;;;0.60;99.90;;;;;;5050975;28;20192;-58
2021/12/22 04:47:46;;;;;;;49.53;20.40;;;0.60;99.90;;;;;;5050769;28;20691;-57
2021/12/22 04:50:14;;;;;;;56.00;21.13;;;0.60;99.90;;;;;;5050767;28;20181;-59
2021/12/22 04:55:17;;;;;;;50.77;20.50;;;0.60;99.90;;;;;;5050570;28;20189;-57
2021/12/22 04:57:43;;;;;;;52.77;21.63;;;0.60;99.90;;;;;;5050964;28;20181;-57
2021/12/22 05:00:11;;;;;;;45.80;19.80;;;0.60;99.90;;;;;;5048314;28;20204;-57
2021/12/22 05:02:37;;;;;;;53.57;20.93;;;0.60;99.90;;;;;;5050407;28;20235;-57
2021/12/22 05:05:03;;;;;;;45.43;20.37;;;0.60;99.90;;;;;;5050457;28;20668;-57
2021/12/22 05:07:29;;;;;;;49.00;21.23;;;0.60;99.90;;;;;;5050226;28;20223;-57
2021/12/22 05:09:55;;;;;;;47.80;20.33;;;0.50;99.90;;;;;;5050516;28;20178;-57
2021/12/22 05:12:21;;;;;;;49.43;21.07;;;0.50;99.90;;;;;;5050536;28;20191;-57
2021/12/22 05:14:50;;;;;;;49.93;20.83;;;0.50;99.90;;;;;;5050353;28;20201;-57
2021/12/22 05:18:13;;;;;;;43.40;20.63;;;0.50;99.90;;;;;;5050237;28;20181;-58
2021/12/22 05:20:06;;;;;;;48.60;19.63;;;0.50;99.90;;;;;;5039500;28;20284;-58
2021/12/22 05:22:32;;;;;;;46.83;20.57;;;0.40;99.90;;;;;;5049743;28;20185;-58
2021/12/22 05:24:59;;;;;;;48.20;20.20;;;0.40;99.90;;;;;;5050331;28;20508;-58
2021/12/22 05:27:25;;;;;;;52.10;20.83;;;0.40;99.90;;;;;;5049749;28;20652;-58
2021/12/22 05:29:51;;;;;;;50.23;20.77;;;0.40;99.90;;;;;;5050262;28;20185;-58
2021/12/22 05:32:17;;;;;;;51.23;21.30;;;0.40;99.90;;;;;;5052115;28;20647;-57
2021/12/22 05:34:43;;;;;;;45.23;20.87;;;0.30;99.90;;;;;;5053782;28;20233;-58
2021/12/22 05:37:10;;;;;;;47.37;21.83;;;0.40;99.90;;;;;;5053559;28;20185;-57
2021/12/22 05:39:35;;;;;;;49.17;21.33;;;0.50;99.90;;;;;;5038759;28;20173;-57
2021/12/22 05:42:01;;;;;;;49.87;21.67;;;0.50;99.90;;;;;;5053499;28;20184;-57
2021/12/22 05:44:27;;;;;;;47.67;21.53;;;0.60;99.90;;;;;;5054119;28;20179;-57
2021/12/22 05:46:53;;;;;;;62.13;21.80;;;0.70;99.90;;;;;;5053771;28;20201;-57
2021/12/22 05:49:19;;;;;;;47.77;20.63;;;0.80;99.90;;;;;;5053773;28;20172;-57
2021/12/22 05:51:45;;;;;;;43.47;20.33;;;0.90;99.90;;;;;;5053383;28;20554;-57
2021/12/22 05:54:11;;;;;;;49.53;20.33;;;1.10;99.90;;;;;;5053081;28;20178;-58
2021/12/22 05:56:37;;;;;;;49.30;20.17;;;1.10;99.90;;;;;;5053070;28;20173;-57
2021/12/22 05:59:03;;;;;;;45.63;19.33;;;1.30;99.90;;;;;;5053465;28;20181;-57
2021/12/22 06:01:30;;;;;;;49.93;20.27;;;1.30;99.90;;;;;;5053517;28;20209;-58
2021/12/22 06:03:59;;;;;;;46.57;20.40;;;1.30;99.90;;;;;;5053203;28;20686;-57
2021/12/22 06:06:26;;;;;;;49.33;20.83;;;1.40;99.90;;;;;;5052284;28;20667;-58
2021/12/22 06:08:52;;;;;;;49.40;19.77;;;1.40;99.90;;;;;;5052857;28;20280;-57
2021/12/22 06:11:18;;;;;;;48.50;19.90;;;1.50;99.90;;;;;;5053413;28;20177;-58
2021/12/22 06:13:44;;;;;;;45.50;19.00;;;1.50;99.90;;;;;;5053405;28;20173;-57
2021/12/22 06:16:10;;;;;;;38.23;18.67;;;1.50;99.90;;;;;;5053038;28;20543;-57
2021/12/22 06:18:42;;;;;;;46.20;18.93;;;1.60;99.90;;;;;;5055187;28;20537;-58
2021/12/22 06:21:08;;;;;;;41.03;17.53;;;1.60;99.90;;;;;;5037115;28;20673;-58
2021/12/22 06:23:34;;;;;;;40.27;18.60;;;1.70;99.90;;;;;;5052682;28;20184;-57
2021/12/22 06:26:00;;;;;;;42.43;18.90;;;1.80;99.90;;;;;;5052774;28;20209;-57
2021/12/22 06:28:26;;;;;;;46.37;18.10;;;1.80;99.90;;;;;;5053024;28;20211;-57
2021/12/22 06:30:51;;;;;;;45.00;18.13;;;1.90;99.90;;;;;;5053025;28;20176;-57
2021/12/22 06:33:17;;;;;;;46.67;18.60;;;1.90;99.90;;;;;;5052686;28;20192;-57
2021/12/22 06:35:46;;;;;;;45.37;18.23;;;1.90;99.90;;;;;;5053166;28;20210;-57
2021/12/22 06:38:13;;;;;;;42.67;18.57;;;1.90;99.90;;;;;;5052750;28;20256;-57
2021/12/22 06:40:39;;;;;;;37.20;17.30;;;1.90;99.90;;;;;;5052836;28;20182;-57
2021/12/22 06:43:05;;;;;;;42.10;18.57;;;1.90;99.90;;;;;;5053241;28;20670;-57
2021/12/22 06:45:31;;;;;;;49.83;19.00;;;1.90;99.90;;;;;;5053245;28;20726;-57
2021/12/22 06:47:57;;;;;;;47.23;18.53;;;1.90;99.90;;;;;;5053378;28;20215;-57
2021/12/22 06:50:23;;;;;;;45.20;18.77;;;1.90;99.90;;;;;;5052133;28;20235;-57
2021/12/22 06:52:49;;;;;;;49.77;18.07;;;1.90;99.90;;;;;;5052366;28;20663;-57
2021/12/22 06:55:15;;;;;;;43.80;19.03;;;1.90;99.90;;;;;;5052482;28;20165;-60
2021/12/22 06:57:41;;;;;;;49.17;19.20;;;1.90;99.90;;;;;;5052506;28;20177;-59
2021/12/22 07:00:09;;;;;;;43.63;18.83;;;1.90;99.90;;;;;;5052565;28;20264;-57
2021/12/22 07:02:37;;;;;;;41.73;19.00;;;1.90;99.90;;;;;;5052541;28;20177;-58
2021/12/22 07:05:08;;;;;;;43.20;18.13;;;1.90;99.90;;;;;;5052742;28;20246;-57
2021/12/22 07:07:35;;;;;;;48.93;18.63;;;1.90;99.90;;;;;;5052210;28;20208;-61
2021/12/22 07:10:02;;;;;;;46.40;19.73;;;1.90;99.90;;;;;;5052536;28;20668;-57
2021/12/22 07:12:28;;;;;;;47.30;20.90;;;2.00;99.90;;;;;;5051785;28;20176;-57
2021/12/22 07:14:54;;;;;;;42.37;20.17;;;2.00;99.90;;;;;;5051698;28;20184;-57
2021/12/22 07:17:20;;;;;;;42.97;18.43;;;2.00;99.90;;;;;;5051638;28;20187;-57
2021/12/22 07:19:46;;;;;;;41.73;19.20;;;2.10;99.90;;;;;;5051453;28;20556;-57
2021/12/22 07:22:13;;;;;;;51.07;20.83;;;2.10;99.90;;;;;;5051610;28;20207;-57
2021/12/22 07:24:39;;;;;;;42.80;21.17;;;2.00;99.90;;;;;;5051353;28;20177;-57
2021/12/22 07:27:05;;;;;;;47.50;20.47;;;2.00;99.90;;;;;;5050533;28;20675;-57
2021/12/22 07:29:31;;;;;;;50.10;20.37;;;1.90;99.90;;;;;;5051813;28;20648;-57
2021/12/22 07:31:58;;;;;;;52.97;20.70;;;1.90;99.90;;;;;;5051570;28;20643;-57
2021/12/22 07:34:47;;;;;;;47.33;20.47;;;2.00;99.90;;;;;;5052049;28;20227;-56
2021/12/22 07:37:21;;;;;;;52.30;20.60;;;2.00;99.90;;;;;;5051779;28;20173;-56
2021/12/22 07:39:48;;;;;;;48.03;19.43;;;2.00;99.90;;;;;;5051699;28;20188;-56
2021/12/22 07:42:13;;;;;;;45.77;21.07;;;2.00;99.90;;;;;;5051490;28;20188;-56
2021/12/22 07:44:39;;;;;;;43.70;20.00;;;2.00;99.90;;;;;;5051447;28;20169;-56
2021/12/22 07:47:05;;;;;;;53.13;21.77;;;2.10;99.90;;;;;;5051146;28;20208;-57
2021/12/22 07:49:31;;;;;;;47.83;21.30;;;2.00;99.90;;;;;;5051277;28;20674;-61
2021/12/22 07:51:57;;;;;;;47.37;20.80;;;2.00;99.90;;;;;;5051019;28;20183;-61
2021/12/22 07:54:23;;;;;;;44.27;19.70;;;2.00;99.90;;;;;;5049092;28;20185;-61
2021/12/22 07:56:49;;;;;;;51.90;21.47;;;2.00;99.90;;;;;;5048546;28;20639;-62
2021/12/22 07:59:14;;;;;;;47.00;20.37;;;2.10;99.90;;;;;;5049978;28;20185;-57
2021/12/22 08:01:40;;;;;;;49.93;20.93;;;2.10;99.90;;;;;;5049637;28;20231;-57
2021/12/22 08:04:06;;;;;;;50.93;21.03;;;2.20;99.90;;;;;;5050783;28;20177;-57
2021/12/22 08:06:32;;;;;;;42.50;20.53;;;2.20;99.90;;;;;;5050753;28;20732;-58
2021/12/22 08:08:58;;;;;;;48.30;21.77;;;2.30;99.90;;;;;;5040180;28;20186;-57
2021/12/22 08:11:23;;;;;;;47.40;21.30;;;2.20;99.90;;;;;;5061932;28;20178;-57
2021/12/22 08:13:49;;;;;;;45.33;19.57;;;2.30;99.90;;;;;;5058043;28;20211;-57
2021/12/22 08:16:15;;;;;;;49.30;22.20;;;2.60;99.90;;;;;;5056263;28;20173;-58
2021/12/22 08:18:41;;;;;;;47.00;20.10;;;2.70;99.90;;;;;;5051283;28;20178;-57
2021/12/22 08:21:07;;;;;;;50.70;19.97;;;2.60;99.90;;;;;;5050851;28;20181;-57
2021/12/22 08:23:33;;;;;;;58.67;19.77;;;2.80;99.90;;;;;;5050806;28;20173;-58
2021/12/22 08:25:59;;;;;;;49.33;20.33;;;2.80;99.90;;;;;;5051749;28;20262;-62
2021/12/22 08:28:25;;;;;;;50.40;21.03;;;2.80;99.90;;;;;;5049738;28;20552;-62
2021/12/22 08:30:50;;;;;;;52.37;19.77;;;2.80;99.90;;;;;;5048120;28;20192;-61
2021/12/22 08:33:25;;;;;;;56.13;20.57;;;2.80;99.90;;;;;;5050012;28;20161;-63
2021/12/22 08:38:52;;;;;;;47.37;19.20;;;2.90;99.90;;;;;;5044863;28;20184;-62
2021/12/22 08:41:28;;;;;;;50.73;19.10;;;2.90;99.90;;;;;;5050139;28;20191;-62
2021/12/22 08:43:56;;;;;;;50.90;20.03;;;3.00;99.90;;;;;;5050076;28;20173;-62
2021/12/22 08:46:23;;;;;;;53.07;18.83;;;3.00;99.90;;;;;;5050194;28;20197;-63
2021/12/22 08:48:48;;;;;;;53.50;19.00;;;3.10;99.90;;;;;;5049906;28;20173;-57
2021/12/22 08:51:15;;;;;;;45.70;19.30;;;3.10;99.90;;;;;;5048759;28;20173;-58
2021/12/22 08:53:41;;;;;;;45.90;18.13;;;3.20;99.90;;;;;;5050148;28;20273;-58
2021/12/22 08:56:07;;;;;;;47.23;18.47;;;3.20;99.90;;;;;;5048689;28;20546;-59
2021/12/22 08:58:34;;;;;;;45.67;18.77;;;3.30;99.90;;;;;;5050120;28;20272;-58
2021/12/22 09:01:01;;;;;;;136.97;24.90;;;3.30;99.90;;;;;;5050677;28;20189;-59
2021/12/22 09:03:27;;;;;;;56.17;18.73;;;3.30;99.90;;;;;;5048725;28;20260;-58
2021/12/22 09:05:53;;;;;;;42.00;17.73;;;3.30;99.90;;;;;;5051412;28;20258;-58
2021/12/22 09:08:19;;;;;;;42.47;18.83;;;3.40;99.90;;;;;;5045562;28;20706;-62
2021/12/22 09:10:45;;;;;;;43.07;17.67;;;3.40;99.90;;;;;;5054068;28;20170;-61
2021/12/22 09:13:13;;;;;;;40.03;17.17;;;3.40;99.90;;;;;;5053780;28;20173;-59
2021/12/22 09:15:39;;;;;;;38.33;16.23;;;3.40;99.90;;;;;;5039795;28;20236;-63
2021/12/22 09:18:05;;;;;;;41.90;15.97;;;3.40;99.90;;;;;;5048066;28;20165;-64
2021/12/22 09:20:31;;;;;;;40.37;16.27;;;3.40;99.90;;;;;;5054257;28;20177;-63
2021/12/22 09:22:56;;;;;;;41.50;15.97;;;3.40;99.90;;;;;;5054580;28;20619;-62
2021/12/22 09:25:22;;;;;;;41.57;16.00;;;3.40;99.90;;;;;;5054514;28;20185;-59
2021/12/22 09:27:48;;;;;;;34.63;15.93;;;3.50;99.90;;;;;;5054910;28;20636;-65
2021/12/22 09:30:14;;;;;;;39.63;15.27;;;3.50;99.90;;;;;;5055045;28;20248;-62
2021/12/22 09:32:40;;;;;;;35.40;14.70;;;3.50;99.90;;;;;;5054597;28;20186;-63
2021/12/22 09:35:06;;;;;;;38.63;14.90;;;3.50;99.90;;;;;;5057033;28;20185;-62
2021/12/22 09:37:32;;;;;;;29.77;14.77;;;3.50;99.90;;;;;;5053685;28;20177;-61
2021/12/22 09:39:58;;;;;;;34.60;14.10;;;3.50;99.90;;;;;;5056067;28;20169;-60
2021/12/22 09:42:24;;;;;;;42.57;14.70;;;3.60;99.90;;;;;;5053467;28;20173;-61
2021/12/22 09:44:50;;;;;;;36.47;13.93;;;3.60;99.90;;;;;;5053216;28;20181;-61
2021/12/22 09:47:26;;;;;;;34.13;14.50;;;3.70;99.90;;;;;;5051547;28;20216;-60
2021/12/22 09:50:12;;;;;;;35.53;14.13;;;3.70;99.90;;;;;;5053501;28;20188;-60
2021/12/22 09:52:39;;;;;;;41.87;14.17;;;3.80;99.90;;;;;;5039012;28;20178;-61
2021/12/22 09:55:07;;;;;;;29.00;13.47;;;3.70;99.90;;;;;;5034172;28;20185;-62
2021/12/22 09:57:34;;;;;;;27.90;12.77;;;3.80;99.90;;;;;;5054265;28;20216;-61
2021/12/22 10:00:03;;;;;;;31.43;13.23;;;3.80;99.90;;;;;;5057051;28;20266;-60
2021/12/22 10:02:30;;;;;;;33.73;13.20;;;3.90;99.90;;;;;;5053658;28;20181;-61
2021/12/22 10:04:57;;;;;;;28.07;12.20;;;3.90;99.90;;;;;;5053645;28;20185;-61
2021/12/22 10:07:27;;;;;;;33.47;11.87;;;3.90;99.90;;;;;;5053459;28;20220;-62
2021/12/22 10:09:54;;;;;;;28.63;11.77;;;3.90;99.90;;;;;;5053486;28;20671;-62
2021/12/22 10:12:26;;;;;;;27.73;11.63;;;4.00;99.90;;;;;;5056215;28;20177;-62
2021/12/22 10:14:56;;;;;;;28.37;12.00;;;4.00;99.90;;;;;;5053250;28;20235;-62
2021/12/22 10:17:43;;;;;;;31.27;11.63;;;4.10;99.90;;;;;;5052442;28;20181;-62
2021/12/22 10:20:15;;;;;;;24.07;10.83;;;4.20;99.90;;;;;;5052553;28;20200;-58
2021/12/22 10:22:44;;;;;;;24.03;10.77;;;4.20;99.90;;;;;;5052476;28;20177;-65
2021/12/22 10:25:22;;;;;;;24.37;11.83;;;4.30;99.90;;;;;;5051233;28;20533;-60
2021/12/22 10:28:16;;;;;;;26.73;11.20;;;4.30;99.90;;;;;;5052881;28;20276;-60
2021/12/22 10:30:43;;;;;;;28.70;10.83;;;4.30;99.90;;;;;;5052593;28;20234;-60
2021/12/22 10:33:23;;;;;;;29.67;11.77;;;4.30;99.90;;;;;;5053009;28;20256;-60
2021/12/22 10:35:54;;;;;;;24.93;11.07;;;4.30;99.90;;;;;;5052821;28;20173;-60
2021/12/22 10:38:23;;;;;;;25.47;10.80;;;4.30;99.90;;;;;;5052744;28;20177;-59
2021/12/22 10:40:55;;;;;;;23.67;9.87;;;4.40;99.90;;;;;;5052080;28;20169;-58
2021/12/22 10:43:28;;;;;;;25.17;10.73;;;4.40;99.90;;;;;;5050525;28;20177;-58
2021/12/22 10:45:57;;;;;;;30.73;10.80;;;4.40;99.90;;;;;;5050623;28;20232;-60
2021/12/22 10:51:20;;;;;;;28.87;10.23;;;4.50;99.90;;;;;;5051013;28;20269;-60
2021/12/22 10:53:48;;;;;;;27.23;10.87;;;4.50;99.90;;;;;;5050499;28;20188;-58
2021/12/22 10:56:26;;;;;;;29.17;10.80;;;4.50;99.90;;;;;;5051142;28;20173;-58
2021/12/22 10:59:16;;;;;;;27.27;11.03;;;4.60;99.90;;;;;;5052367;28;20188;-60
2021/12/22 11:02:09;;;;;;;22.47;10.13;;;4.60;99.90;;;;;;5052302;28;20192;-59
2021/12/22 11:04:42;;;;;;;28.17;9.07;;;4.60;99.90;;;;;;5052400;28;20168;-59
2021/12/22 11:07:14;;;;;;;24.10;8.87;;;4.70;99.90;;;;;;5052408;28;20209;-59
2021/12/22 11:09:40;;;;;;;22.30;8.87;;;4.70;99.90;;;;;;5052279;28;20621;-59
2021/12/22 11:12:07;;;;;;;26.70;9.30;;;4.80;99.90;;;;;;5052443;28;20184;-59
2021/12/22 11:14:38;;;;;;;25.13;9.47;;;4.80;99.90;;;;;;5052166;28;20717;-60
2021/12/22 11:17:13;;;;;;;22.50;9.33;;;4.80;99.90;;;;;;5052103;28;20683;-58
2021/12/22 11:20:01;;;;;;;25.30;9.57;;;4.90;99.90;;;;;;5052399;28;20262;-58
2021/12/22 11:22:59;;;;;;;23.23;8.97;;;5.00;99.90;;;;;;5052021;28;20177;-58
2021/12/22 11:25:27;;;;;;;27.33;9.50;;;5.00;99.90;;;;;;5051776;28;20169;-58
2021/12/22 11:27:54;;;;;;;24.73;8.43;;;5.00;99.90;;;;;;5051652;28;20224;-58
2021/12/22 11:30:21;;;;;;;18.40;8.53;;;5.00;99.90;;;;;;5050772;28;20264;-59
2021/12/22 11:32:48;;;;;;;25.33;9.27;;;5.00;99.90;;;;;;5051696;28;20651;-58
2021/12/22 11:35:15;;;;;;;27.13;10.37;;;5.10;99.90;;;;;;5051834;28;20161;-59
2021/12/22 11:37:42;;;;;;;19.80;8.57;;;5.20;99.90;;;;;;5051746;28;20478;-59
2021/12/22 11:40:11;;;;;;;16.47;7.90;;;5.20;99.90;;;;;;5051865;28;20318;-58
2021/12/22 11:42:40;;;;;;;23.23;7.93;;;5.10;99.90;;;;;;5051616;28;20173;-58
2021/12/22 11:45:19;;;;;;;23.57;7.97;;;5.10;99.90;;;;;;5051449;28;20173;-58
2021/12/22 11:47:48;;;;;;;29.53;8.73;;;5.00;99.90;;;;;;5051394;28;20207;-59
2021/12/22 11:50:23;;;;;;;23.30;8.43;;;5.10;99.90;;;;;;5051644;28;20177;-58
2021/12/22 11:53:05;;;;;;;19.43;8.53;;;5.20;99.90;;;;;;5051560;28;20179;-59
2021/12/22 11:55:43;;;;;;;25.57;8.23;;;5.20;99.90;;;;;;5051322;28;20260;-59
2021/12/22 11:58:25;;;;;;;21.60;8.20;;;5.30;99.90;;;;;;5051511;28;20679;-58
2021/12/22 12:00:50;;;;;;;21.03;8.37;;;5.30;99.90;;;;;;5051486;28;20506;-59
2021/12/22 12:03:36;;;;;;;23.03;8.47;;;5.30;99.90;;;;;;5051199;28;20312;-59
2021/12/22 12:06:10;;;;;;;25.80;8.23;;;5.50;99.90;;;;;;5051014;28;20185;-58
2021/12/22 12:08:37;;;;;;;20.30;7.63;;;5.60;99.90;;;;;;5051163;28;20216;-58
2021/12/22 12:11:12;;;;;;;36.37;8.17;;;5.80;99.90;;;;;;5051244;28;20196;-58
2021/12/22 12:14:20;;;;;;;32.57;8.13;;;5.90;99.90;;;;;;5051243;28;20181;-60
2021/12/22 12:22:30;;;;;;;19.33;7.63;;;6.30;99.90;;;;;;5051200;28;20188;-60
2021/12/22 12:25:12;;;;;;;16.20;6.77;;;6.50;99.90;;;;;;5051002;28;20254;-59
2021/12/22 12:27:37;;;;;;;21.77;9.00;;;6.40;99.90;;;;;;5050734;28;20340;-60
2021/12/22 12:30:42;;;;;;;21.60;6.70;;;6.50;99.90;;;;;;5050972;28;20679;-58
2021/12/22 12:33:10;;;;;;;19.70;6.83;;;6.70;99.90;;;;;;4989173;28;20713;-58
2021/12/22 12:35:39;;;;;;;20.57;7.50;;;6.70;99.90;;;;;;4989305;28;20716;-58
2021/12/22 12:38:09;;;;;;;17.30;7.13;;;6.60;99.90;;;;;;5020079;28;20196;-58
2021/12/22 12:41:00;;;;;;;19.83;7.17;;;6.40;99.90;;;;;;5050374;28;20194;-58
2021/12/22 12:46:27;;;;;;;20.23;7.47;;;6.20;99.90;;;;;;5050619;28;20173;-58
2021/12/22 12:49:05;;;;;;;15.17;6.80;;;6.20;99.90;;;;;;5050976;28;20541;-58
2021/12/22 12:51:49;;;;;;;20.47;7.40;;;6.20;99.90;;;;;;5050703;28;20180;-59
2021/12/22 12:54:20;;;;;;;17.23;7.37;;;6.40;99.90;;;;;;5050626;28;20181;-58
2021/12/22 12:56:57;;;;;;;20.60;8.20;;;6.40;99.90;;;;;;5050665;28;20213;-58
2021/12/22 12:59:44;;;;;;;21.40;7.37;;;6.30;99.90;;;;;;5050648;28;20678;-58
2021/12/22 13:02:24;;;;;;;23.70;7.03;;;6.30;99.90;;;;;;5049821;28;20188;-59
2021/12/22 13:05:11;;;;;;;19.57;7.27;;;6.40;99.90;;;;;;5050422;28;20248;-58
2021/12/22 13:07:38;;;;;;;18.03;7.13;;;6.60;99.90;;;;;;5050438;28;20213;-58
2021/12/22 13:10:12;;;;;;;23.47;7.37;;;6.60;99.90;;;;;;5049531;28;20197;-58
2021/12/22 13:18:05;;;;;;;19.93;7.13;;;6.60;99.90;;;;;;5049768;28;20184;-58
2021/12/22 13:20:38;;;;;;;18.27;6.80;;;6.50;99.90;;;;;;5035856;28;20174;-58
2021/12/22 13:23:21;;;;;;;20.00;7.17;;;6.60;99.90;;;;;;5029254;28;20265;-58
2021/12/22 13:25:51;;;;;;;21.43;6.40;;;6.70;99.90;;;;;;5028987;28;20310;-58